createdAt,value
2022-10-05T00:00:57.537Z,11.98
2022-10-05T00:03:33.569Z,9.13
2022-10-05T00:06:07.575Z,8.13
2022-10-05T00:08:35.614Z,9.23
2022-10-05T00:11:02.512Z,8.60
2022-10-05T00:13:37.580Z,8.88
2022-10-05T00:16:16.729Z,7.78
2022-10-05T00:18:48.666Z,9.18
2022-10-05T00:21:26.645Z,7.57
2022-10-05T00:24:03.766Z,7.00
2022-10-05T00:26:39.595Z,6.47
2022-10-05T00:29:23.125Z,7.22
2022-10-05T00:31:57.655Z,6.60
2022-10-05T00:34:24.734Z,6.85
2022-10-05T00:36:57.605Z,6.18
2022-10-05T00:39:24.418Z,6.40
2022-10-05T00:41:51.114Z,6.90
2022-10-05T00:44:31.594Z,6.40
2022-10-05T00:47:45.626Z,6.75
2022-10-05T00:50:48.721Z,6.00
2022-10-05T00:53:56.639Z,8.73
2022-10-05T00:56:54.161Z,7.65
2022-10-05T00:59:58.626Z,9.43
2022-10-05T01:02:36.552Z,7.38
2022-10-05T01:05:35.637Z,6.05
2022-10-05T01:08:43.679Z,6.25
2022-10-05T01:11:22.271Z,7.07
2022-10-05T01:14:16.655Z,8.18
2022-10-05T01:17:05.717Z,6.30
2022-10-05T01:20:27.679Z,5.07
2022-10-05T01:23:25.687Z,6.60
2022-10-05T01:26:34.677Z,6.63
2022-10-05T01:29:16.878Z,6.45
2022-10-05T01:32:17.686Z,8.13
2022-10-05T01:34:49.032Z,6.72
2022-10-05T01:37:27.710Z,7.20
2022-10-05T01:40:17.706Z,7.47
2022-10-05T01:43:19.882Z,7.15
2022-10-05T01:46:01.749Z,8.02
2022-10-05T01:48:46.989Z,7.95
2022-10-05T01:51:45.706Z,9.23
2022-10-05T01:54:33.845Z,9.02
2022-10-05T01:57:28.144Z,9.90
2022-10-05T02:00:16.732Z,9.80
2022-10-05T02:02:51.849Z,9.73
2022-10-05T02:05:30.879Z,7.75
2022-10-05T02:08:08.436Z,9.30
2022-10-05T02:10:52.714Z,10.38
2022-10-05T02:13:28.090Z,10.05
2022-10-05T02:16:13.818Z,11.60
2022-10-05T02:19:08.407Z,13.68
2022-10-05T02:21:42.793Z,8.82
2022-10-05T02:24:16.944Z,9.20
2022-10-05T02:26:51.781Z,11.27
2022-10-05T02:29:23.258Z,10.05
2022-10-05T02:32:18.796Z,8.97
2022-10-05T02:34:45.562Z,10.38
2022-10-05T02:37:53.918Z,13.35
2022-10-05T02:40:38.034Z,9.77
2022-10-05T02:43:27.868Z,9.75
2022-10-05T02:46:41.090Z,11.55
2022-10-05T02:49:21.797Z,11.68
2022-10-05T02:52:11.001Z,12.23
2022-10-05T02:55:06.807Z,9.50
2022-10-05T02:58:05.698Z,9.85
2022-10-05T03:00:47.928Z,11.88
2022-10-05T03:03:25.471Z,9.40
2022-10-05T03:06:34.823Z,9.05
2022-10-05T03:09:13.852Z,10.90
2022-10-05T03:11:49.829Z,11.48
2022-10-05T03:14:30.873Z,16.77
2022-10-05T03:17:16.998Z,13.05
2022-10-05T03:20:10.878Z,9.77
2022-10-05T03:22:37.663Z,9.55
2022-10-05T03:25:34.923Z,8.80
2022-10-05T03:28:24.134Z,9.50
2022-10-05T03:31:04.897Z,10.55
2022-10-05T03:33:54.971Z,12.35
2022-10-05T03:36:42.520Z,11.90
2022-10-05T03:39:31.870Z,11.52
2022-10-05T03:42:15.853Z,8.75
2022-10-05T03:45:20.903Z,8.38
2022-10-05T03:48:09.685Z,10.35
2022-10-05T03:51:01.880Z,8.63
2022-10-05T03:53:51.869Z,12.32
2022-10-05T03:56:50.129Z,10.80
2022-10-05T03:59:30.134Z,13.27
2022-10-05T04:02:18.976Z,10.55
2022-10-05T04:04:59.078Z,10.68
2022-10-05T04:07:53.255Z,10.43
2022-10-05T04:10:32.957Z,8.98
2022-10-05T04:13:25.767Z,9.68
2022-10-05T04:16:19.019Z,10.38
2022-10-05T04:19:14.929Z,10.93
2022-10-05T04:21:47.945Z,12.10
2022-10-05T04:24:42.927Z,8.45
2022-10-05T04:27:21.522Z,7.20
2022-10-05T04:30:18.945Z,6.57
2022-10-05T04:32:54.497Z,10.40
2022-10-05T04:36:21.994Z,8.30
2022-10-05T04:38:55.141Z,7.65
2022-10-05T04:42:07.110Z,9.48
2022-10-05T04:44:54.795Z,8.00
2022-10-05T04:47:55.998Z,5.95
2022-10-05T04:50:58.006Z,5.97
2022-10-05T04:54:04.958Z,5.83
2022-10-05T04:56:41.647Z,5.47
2022-10-05T04:59:23.997Z,5.13
2022-10-05T05:02:15.121Z,4.75
2022-10-05T05:05:06.985Z,4.68
2022-10-05T05:07:42.792Z,3.67
2022-10-05T05:10:40.021Z,4.70
2022-10-05T05:13:31.146Z,5.30
2022-10-05T05:15:57.986Z,4.90
2022-10-05T05:18:57.365Z,3.30
2022-10-05T05:22:14.871Z,3.50
2022-10-05T05:25:19.075Z,3.85
2022-10-05T05:27:56.365Z,3.10
2022-10-05T05:30:56.101Z,2.78
2022-10-05T05:33:31.991Z,4.13
2022-10-05T05:36:36.082Z,3.55
2022-10-05T05:39:40.292Z,2.67
2022-10-05T05:42:21.260Z,3.20
2022-10-05T05:45:00.056Z,2.53
2022-10-05T05:47:40.195Z,3.13
2022-10-05T05:50:41.153Z,3.65
2022-10-05T05:53:59.100Z,2.97
2022-10-05T05:56:42.818Z,4.07
2022-10-05T05:59:29.092Z,2.55
2022-10-05T06:02:06.962Z,3.67
2022-10-05T06:04:48.136Z,3.10
2022-10-05T06:07:30.598Z,5.13
2022-10-05T06:10:24.145Z,3.08
2022-10-05T06:12:53.388Z,3.17
2022-10-05T06:15:45.183Z,2.60
2022-10-05T06:18:22.296Z,2.50
2022-10-05T06:21:04.135Z,2.55
2022-10-05T06:23:58.200Z,2.50
2022-10-05T06:26:46.336Z,5.47
2022-10-05T06:29:24.987Z,2.40
2022-10-05T06:32:25.163Z,3.22
2022-10-05T06:35:16.186Z,2.97
2022-10-05T06:37:55.140Z,3.67
2022-10-05T06:40:38.642Z,3.20
2022-10-05T06:43:55.148Z,3.80
2022-10-05T06:46:50.191Z,3.17
2022-10-05T06:49:32.154Z,2.95
2022-10-05T06:52:34.175Z,3.08
2022-10-05T06:55:26.309Z,2.97
2022-10-05T06:58:19.231Z,4.78
2022-10-05T07:01:20.692Z,3.38
2022-10-05T07:04:39.198Z,2.90
2022-10-05T07:07:18.092Z,3.40
2022-10-05T07:10:02.192Z,4.72
2022-10-05T07:12:54.206Z,3.95
2022-10-05T07:15:32.835Z,5.15
2022-10-05T07:18:21.222Z,5.03
2022-10-05T07:21:46.452Z,5.18
2022-10-05T07:24:27.297Z,3.78
2022-10-05T07:27:26.223Z,6.15
2022-10-05T07:30:19.249Z,4.55
2022-10-05T07:33:20.257Z,5.90
2022-10-05T07:36:12.241Z,4.18
2022-10-05T07:39:08.280Z,4.30
2022-10-05T07:41:37.882Z,5.03
2022-10-05T07:44:54.265Z,6.43
2022-10-05T07:47:40.238Z,5.65
2022-10-05T07:50:22.720Z,4.82
2022-10-05T07:56:01.245Z,6.55
2022-10-05T07:58:37.970Z,4.15
2022-10-05T08:01:14.319Z,6.00
2022-10-05T08:03:49.458Z,5.70
2022-10-05T08:06:33.335Z,4.57
2022-10-05T08:09:26.205Z,6.63
2022-10-05T08:12:26.282Z,5.00
2022-10-05T08:15:16.489Z,6.13
2022-10-05T08:18:02.353Z,7.35
2022-10-05T08:20:58.348Z,5.57
2022-10-05T08:23:57.312Z,6.80
2022-10-05T08:26:52.352Z,6.40
2022-10-05T08:29:48.757Z,6.47
2022-10-05T08:32:43.295Z,5.30
2022-10-05T08:35:45.308Z,4.90
2022-10-05T08:38:23.339Z,5.30
2022-10-05T08:41:27.172Z,5.68
2022-10-05T08:44:32.341Z,4.88
2022-10-05T08:47:49.338Z,4.30
2022-10-05T08:50:40.903Z,4.82
2022-10-05T08:53:25.341Z,24.95
2022-10-05T08:55:58.041Z,9.65
2022-10-05T08:58:57.402Z,7.60
2022-10-05T09:01:30.398Z,8.90
2022-10-05T09:04:12.422Z,5.03
2022-10-05T09:10:09.459Z,4.82
2022-10-05T09:13:12.484Z,4.47
2022-10-05T09:16:17.517Z,5.15
2022-10-05T09:19:14.453Z,3.53
2022-10-05T09:22:00.155Z,3.13
2022-10-05T09:24:54.439Z,4.20
2022-10-05T09:27:29.087Z,6.00
2022-10-05T09:30:31.465Z,7.55
2022-10-05T09:33:16.995Z,3.45
2022-10-05T09:36:27.462Z,4.85
2022-10-05T09:39:15.448Z,4.97
2022-10-05T09:42:07.501Z,3.72
2022-10-05T09:44:56.378Z,3.92
2022-10-05T09:48:02.496Z,5.15
2022-10-05T09:50:38.385Z,3.53
2022-10-05T09:53:29.478Z,3.85
2022-10-05T09:59:24.958Z,4.97
2022-10-05T10:02:19.611Z,4.72
2022-10-05T10:05:12.473Z,5.40
2022-10-05T10:08:23.490Z,6.05
2022-10-05T10:11:09.482Z,7.95
2022-10-05T10:14:02.548Z,4.50
2022-10-05T10:16:29.868Z,7.57
2022-10-05T10:19:06.565Z,5.38
2022-10-05T10:21:54.551Z,7.80
2022-10-05T10:24:41.567Z,5.82
2022-10-05T10:27:52.550Z,7.78
2022-10-05T10:30:43.532Z,6.65
2022-10-05T10:33:50.602Z,8.68
2022-10-05T10:36:39.228Z,6.35
2022-10-05T10:39:37.543Z,6.03
2022-10-05T10:42:14.827Z,6.63
2022-10-05T10:44:59.550Z,5.72
2022-10-05T10:47:40.003Z,6.13
2022-10-05T10:50:36.510Z,5.50
2022-10-05T10:53:12.545Z,6.30
2022-10-05T10:56:19.550Z,6.07
2022-10-05T10:59:31.707Z,4.75
2022-10-05T11:02:17.533Z,4.88
2022-10-05T11:05:09.568Z,4.40
2022-10-05T11:07:51.613Z,4.93
2022-10-05T11:11:06.561Z,6.40
2022-10-05T11:14:02.605Z,5.05
2022-10-05T11:16:50.288Z,7.55
2022-10-05T11:20:03.167Z,8.15
2022-10-05T11:23:06.662Z,5.68
2022-10-05T11:25:54.716Z,5.72
2022-10-05T11:28:50.101Z,5.97
2022-10-05T11:32:00.683Z,6.57
2022-10-05T11:34:52.632Z,6.63
2022-10-05T11:38:01.590Z,7.00
2022-10-05T11:41:03.166Z,4.68
2022-10-05T11:43:54.651Z,5.78
2022-10-05T11:46:47.785Z,7.90
2022-10-05T11:49:36.153Z,4.03
2022-10-05T11:52:27.787Z,5.10
2022-10-05T11:55:16.394Z,6.80
2022-10-05T11:58:04.684Z,6.90
2022-10-05T12:00:47.702Z,4.18
2022-10-05T12:03:53.241Z,6.40
2022-10-05T12:06:54.668Z,7.15
2022-10-05T12:09:36.682Z,6.50
2022-10-05T12:12:10.612Z,6.35
2022-10-05T12:14:44.649Z,4.88
2022-10-05T12:17:21.705Z,8.90
2022-10-05T12:20:08.676Z,6.68
2022-10-05T12:22:40.587Z,7.55
2022-10-05T12:25:26.753Z,6.75
2022-10-05T12:28:00.561Z,5.65
2022-10-05T12:31:06.786Z,5.68
2022-10-05T12:33:39.701Z,8.25
2022-10-05T12:36:15.201Z,6.05
2022-10-05T12:39:02.724Z,8.73
2022-10-05T12:41:51.135Z,6.90
2022-10-05T12:44:29.718Z,9.45
2022-10-05T12:47:02.538Z,5.93
2022-10-05T12:49:44.741Z,7.20
2022-10-05T12:52:28.612Z,6.60
2022-10-05T12:55:13.310Z,5.32
2022-10-05T12:58:11.788Z,5.75
2022-10-05T13:00:48.143Z,6.13
2022-10-05T13:03:36.796Z,6.82
2022-10-05T13:06:04.193Z,6.30
2022-10-05T13:09:06.794Z,8.65
2022-10-05T13:11:52.557Z,6.47
2022-10-05T13:14:59.764Z,5.85
2022-10-05T13:17:46.823Z,7.43
2022-10-05T13:20:35.245Z,5.70
2022-10-05T13:23:37.831Z,11.65
2022-10-05T13:26:14.556Z,6.25
2022-10-05T13:29:04.048Z,6.45
2022-10-05T13:31:53.867Z,7.30
2022-10-05T13:34:24.996Z,7.75
2022-10-05T13:37:09.809Z,5.25
2022-10-05T13:39:52.975Z,8.70
2022-10-05T13:42:54.829Z,6.50
2022-10-05T13:45:52.790Z,9.03
2022-10-05T13:48:29.028Z,12.27
2022-10-05T13:51:31.897Z,8.85
2022-10-05T13:57:28.879Z,6.63
2022-10-05T14:00:04.946Z,8.05
2022-10-05T14:02:45.874Z,10.38
2022-10-05T14:05:19.267Z,7.22
2022-10-05T14:08:10.877Z,7.18
2022-10-05T14:10:40.172Z,10.27
2022-10-05T14:13:40.073Z,5.93
2022-10-05T14:16:27.921Z,7.95
2022-10-05T14:19:11.876Z,11.60
2022-10-05T14:21:59.930Z,9.32
2022-10-05T14:24:45.893Z,10.55
2022-10-05T14:27:41.924Z,5.13
2022-10-05T14:30:08.641Z,5.10
2022-10-05T14:33:01.885Z,8.07
2022-10-05T14:35:37.912Z,8.07
2022-10-05T14:38:35.899Z,6.50
2022-10-05T14:41:05.625Z,7.05
2022-10-05T14:43:41.016Z,5.80
2022-10-05T14:46:34.158Z,6.05
2022-10-05T14:49:29.972Z,6.72
2022-10-05T14:51:58.511Z,6.70
2022-10-05T14:54:52.978Z,6.63
2022-10-05T14:57:33.468Z,7.13
2022-10-05T15:00:22.961Z,6.82
2022-10-05T15:03:08.145Z,5.65
2022-10-05T15:05:56.991Z,6.55
2022-10-05T15:08:47.948Z,4.45
2022-10-05T15:11:52.980Z,6.95
2022-10-05T15:14:26.338Z,8.20
2022-10-05T15:17:04.028Z,6.53
2022-10-05T15:19:40.559Z,5.78
2022-10-05T15:22:29.132Z,7.05
2022-10-05T15:25:28.986Z,6.53
2022-10-05T15:28:30.370Z,4.53
2022-10-05T15:31:11.021Z,5.75
2022-10-05T15:33:46.305Z,8.27
2022-10-05T15:36:28.993Z,5.25
2022-10-05T15:39:34.757Z,5.60
2022-10-05T15:42:23.011Z,4.22
2022-10-05T15:45:02.030Z,4.13
2022-10-05T15:47:42.081Z,9.15
2022-10-05T15:50:27.316Z,5.40
2022-10-05T15:53:19.080Z,5.38
2022-10-05T15:56:05.019Z,7.68
2022-10-05T15:58:34.639Z,4.43
2022-10-05T16:01:11.120Z,5.65
2022-10-05T16:04:19.026Z,7.70
2022-10-05T16:07:17.585Z,4.78
2022-10-05T16:10:10.058Z,3.58
2022-10-05T16:12:39.748Z,7.97
2022-10-05T16:15:23.087Z,5.97
2022-10-05T16:18:09.117Z,4.68
2022-10-05T16:21:04.104Z,4.45
2022-10-05T16:24:05.067Z,5.68
2022-10-05T16:26:56.057Z,4.85
2022-10-05T16:29:50.250Z,5.03
2022-10-05T16:32:28.101Z,6.80
2022-10-05T16:35:08.672Z,5.57
2022-10-05T16:38:03.101Z,4.97
2022-10-05T16:40:52.331Z,4.97
2022-10-05T16:43:53.053Z,5.47
2022-10-05T16:46:43.139Z,5.43
2022-10-05T16:49:44.071Z,3.95
2022-10-05T16:52:15.767Z,7.35
2022-10-05T16:54:55.174Z,5.07
2022-10-05T16:57:29.888Z,4.78
2022-10-05T17:00:28.098Z,9.40
2022-10-05T17:03:21.161Z,4.70
2022-10-05T17:05:59.061Z,5.25
2022-10-05T17:08:37.156Z,6.20
2022-10-05T17:11:31.124Z,5.22
2022-10-05T17:14:17.112Z,5.85
2022-10-05T17:16:46.933Z,6.70
2022-10-05T17:19:35.126Z,5.90
2022-10-05T17:22:18.296Z,5.60
2022-10-05T17:25:21.168Z,7.55
2022-10-05T17:28:12.856Z,6.53
2022-10-05T17:31:21.253Z,6.65
2022-10-05T17:34:00.192Z,6.82
2022-10-05T17:36:55.244Z,5.18
2022-10-05T17:39:41.877Z,4.97
2022-10-05T17:42:52.212Z,5.60
2022-10-05T17:45:26.217Z,6.25
2022-10-05T17:48:10.251Z,5.93
2022-10-05T17:51:05.208Z,5.22
2022-10-05T17:54:01.779Z,6.45
2022-10-05T17:56:37.268Z,5.80
2022-10-05T17:59:13.236Z,6.47
2022-10-05T18:01:48.295Z,5.18
2022-10-05T18:04:40.244Z,4.32
2022-10-05T18:07:29.242Z,5.07
2022-10-05T18:10:22.381Z,5.43
2022-10-05T18:13:11.227Z,5.70
2022-10-05T18:15:45.155Z,5.53
2022-10-05T18:18:49.258Z,7.20
2022-10-05T18:21:20.410Z,5.38
2022-10-05T18:24:01.257Z,6.53
2022-10-05T18:26:51.976Z,5.43
2022-10-05T18:29:56.290Z,5.95
2022-10-05T18:32:34.767Z,5.55
2022-10-05T18:35:21.295Z,6.38
2022-10-05T18:37:57.567Z,4.03
2022-10-05T18:40:41.400Z,5.50
2022-10-05T18:43:33.924Z,6.10
2022-10-05T18:46:32.412Z,8.95
2022-10-05T18:49:24.306Z,6.50
2022-10-05T18:51:55.816Z,5.68
2022-10-05T18:54:50.396Z,8.65
2022-10-05T18:57:32.295Z,4.85
2022-10-05T19:00:20.316Z,8.60
2022-10-05T19:03:03.353Z,7.40
2022-10-05T19:05:57.431Z,9.63
2022-10-05T19:08:49.429Z,6.18
2022-10-05T19:11:27.887Z,9.48
2022-10-05T19:14:02.404Z,6.10
2022-10-05T19:16:51.376Z,9.07
2022-10-05T19:19:46.604Z,5.50
2022-10-05T19:22:26.368Z,5.47
2022-10-05T19:25:24.216Z,9.15
2022-10-05T19:28:10.397Z,9.20
2022-10-05T19:31:09.718Z,12.25
2022-10-05T19:34:01.429Z,5.10
2022-10-05T19:36:48.984Z,6.00
2022-10-05T19:39:37.367Z,3.25
2022-10-05T19:42:25.346Z,3.45
2022-10-05T19:45:27.371Z,3.17
2022-10-05T19:48:14.848Z,3.93
2022-10-05T19:51:00.429Z,5.82
2022-10-05T19:53:31.199Z,4.45
2022-10-05T19:56:26.389Z,2.85
2022-10-05T19:58:56.494Z,4.50
2022-10-05T20:01:33.465Z,3.25
2022-10-05T20:04:00.620Z,3.55
2022-10-05T20:06:36.409Z,4.38
2022-10-05T20:09:33.417Z,6.15
2022-10-05T20:12:07.422Z,5.53
2022-10-05T20:15:00.420Z,5.53
2022-10-05T20:17:53.415Z,3.42
2022-10-05T20:20:22.733Z,3.75
2022-10-05T20:22:56.468Z,3.40
2022-10-05T20:25:29.466Z,5.75
2022-10-05T20:28:08.555Z,4.43
2022-10-05T20:30:35.375Z,4.55
2022-10-05T20:33:11.543Z,4.93
2022-10-05T20:35:44.440Z,5.28
2022-10-05T20:38:18.492Z,4.28
2022-10-05T20:40:46.682Z,3.67
2022-10-05T20:43:13.855Z,7.75
2022-10-05T20:45:49.467Z,6.22
2022-10-05T20:48:23.563Z,6.35
2022-10-05T20:50:56.533Z,7.45
2022-10-05T20:53:23.688Z,5.38
2022-10-05T20:55:57.502Z,4.60
2022-10-05T20:58:24.627Z,2.63
2022-10-05T21:01:16.574Z,2.35
2022-10-05T21:03:43.446Z,3.30
2022-10-05T21:06:17.518Z,3.22
2022-10-05T21:08:46.754Z,3.33
2022-10-05T21:11:14.479Z,3.35
2022-10-05T21:13:53.498Z,4.47
2022-10-05T21:16:20.781Z,2.35
2022-10-05T21:18:55.556Z,3.20
2022-10-05T21:21:29.486Z,4.95
2022-10-05T21:23:56.832Z,3.92
2022-10-05T21:26:30.548Z,1.88
2022-10-05T21:29:07.774Z,2.88
2022-10-05T21:31:37.551Z,3.10
2022-10-05T21:34:11.529Z,3.72
2022-10-05T21:36:44.495Z,3.60
2022-10-05T21:39:17.536Z,3.03
2022-10-05T21:42:12.508Z,1.67
2022-10-05T21:44:45.549Z,2.67
2022-10-05T21:47:19.583Z,1.70
2022-10-05T21:49:46.503Z,2.50
2022-10-05T21:52:13.475Z,2.38
2022-10-05T21:54:46.582Z,2.78
2022-10-05T21:57:21.565Z,1.95
2022-10-05T21:59:55.580Z,2.85
2022-10-05T22:02:28.577Z,3.13
2022-10-05T22:04:55.411Z,2.70
2022-10-05T22:07:28.565Z,3.10
2022-10-05T22:10:01.595Z,3.75
2022-10-05T22:12:28.779Z,2.63
2022-10-05T22:15:02.608Z,3.30
2022-10-05T22:17:31.883Z,3.60
2022-10-05T22:20:06.593Z,4.70
2022-10-05T22:22:33.658Z,5.80
2022-10-05T22:25:00.439Z,4.38
2022-10-05T22:27:35.612Z,7.25
2022-10-05T22:30:03.693Z,4.75
2022-10-05T22:32:36.667Z,4.20
2022-10-05T22:35:11.719Z,7.20
2022-10-05T22:37:45.630Z,6.47
2022-10-05T22:40:18.655Z,7.57
2022-10-05T22:42:51.681Z,8.43
2022-10-05T22:45:18.753Z,9.00
2022-10-05T22:47:45.630Z,4.93
2022-10-05T22:50:18.675Z,7.10
2022-10-05T22:52:48.607Z,8.38
2022-10-05T22:55:21.691Z,12.80
2022-10-05T22:57:49.284Z,10.73
2022-10-05T23:00:35.234Z,7.28
2022-10-05T23:03:15.710Z,6.75
2022-10-05T23:05:49.681Z,14.27
2022-10-05T23:08:16.889Z,10.80
2022-10-05T23:10:49.758Z,7.50
2022-10-05T23:13:16.678Z,8.20
2022-10-05T23:15:51.694Z,11.95
2022-10-05T23:18:18.453Z,11.05
2022-10-05T23:20:51.772Z,10.52
2022-10-05T23:23:19.143Z,9.93
2022-10-05T23:25:52.692Z,13.75
2022-10-05T23:28:19.607Z,10.63
2022-10-05T23:30:52.815Z,9.55
2022-10-05T23:33:19.687Z,10.82
2022-10-05T23:35:52.713Z,7.57
2022-10-05T23:38:19.522Z,8.32
2022-10-05T23:40:53.770Z,5.03
2022-10-05T23:43:20.695Z,7.35
2022-10-05T23:45:47.682Z,11.27
2022-10-05T23:48:21.751Z,9.30
2022-10-05T23:50:55.768Z,9.95
2022-10-05T23:53:29.724Z,7.18
2022-10-05T23:55:56.594Z,7.78
2022-10-05T23:58:30.986Z,5.95
